createdAt,value
2023-03-02T00:00:48.239Z,25.42
2023-03-02T00:03:18.268Z,24.05
2023-03-02T00:05:47.274Z,25.23
2023-03-02T00:08:16.811Z,22.30
2023-03-02T00:10:43.889Z,23.33
2023-03-02T00:13:12.629Z,29.02
2023-03-02T00:15:39.597Z,25.83
2023-03-02T00:18:06.516Z,28.50
2023-03-02T00:20:34.851Z,25.50
2023-03-02T00:23:01.936Z,26.70
2023-03-02T00:25:28.883Z,25.95
2023-03-02T00:27:55.942Z,24.15
2023-03-02T00:30:22.859Z,23.60
2023-03-02T00:32:50.066Z,29.80
2023-03-02T00:35:17.314Z,23.85
2023-03-02T00:37:44.539Z,27.50
2023-03-02T00:40:11.937Z,22.20
2023-03-02T00:42:39.105Z,23.25
2023-03-02T00:45:07.153Z,24.60
2023-03-02T00:47:36.057Z,24.70
2023-03-02T00:50:04.615Z,24.27
2023-03-02T00:52:32.416Z,20.45
2023-03-02T00:54:59.479Z,25.83
2023-03-02T00:57:26.469Z,21.40
2023-03-02T00:59:54.640Z,23.92
2023-03-02T01:02:33.816Z,22.83
2023-03-02T01:05:00.813Z,23.20
2023-03-02T01:07:28.566Z,22.35
2023-03-02T01:09:55.639Z,22.75
2023-03-02T01:12:23.230Z,30.17
2023-03-02T01:14:50.965Z,25.02
2023-03-02T01:17:19.087Z,27.58
2023-03-02T01:19:46.046Z,25.27
2023-03-02T01:22:12.958Z,24.77
2023-03-02T01:24:40.089Z,23.70
2023-03-02T01:27:06.974Z,27.17
2023-03-02T01:29:33.941Z,27.33
2023-03-02T01:32:01.325Z,19.35
2023-03-02T01:34:28.531Z,25.02
2023-03-02T01:36:55.553Z,23.58
2023-03-02T01:39:22.645Z,24.65
2023-03-02T01:41:52.216Z,23.33
2023-03-02T01:44:38.109Z,28.03
2023-03-02T01:47:14.053Z,25.60
2023-03-02T01:50:19.621Z,35.22
2023-03-02T01:52:47.545Z,18.85
2023-03-02T01:55:20.415Z,24.45
2023-03-02T01:57:49.813Z,21.73
2023-03-02T02:00:23.852Z,21.90
2023-03-02T02:02:53.003Z,22.25
2023-03-02T02:05:26.722Z,22.38
2023-03-02T02:07:53.698Z,22.15
2023-03-02T02:10:20.969Z,23.55
2023-03-02T02:12:47.897Z,25.00
2023-03-02T02:15:14.972Z,22.55
2023-03-02T02:17:42.619Z,25.40
2023-03-02T02:20:47.371Z,24.08
2023-03-02T02:23:33.700Z,21.98
2023-03-02T02:26:28.035Z,23.95
2023-03-02T02:29:00.327Z,21.65
2023-03-02T02:31:38.952Z,21.27
2023-03-02T02:34:24.640Z,23.38
2023-03-02T02:36:57.180Z,18.10
2023-03-02T02:39:30.452Z,22.55
2023-03-02T02:42:01.886Z,22.30
2023-03-02T02:44:29.807Z,24.27
2023-03-02T02:46:56.854Z,25.45
2023-03-02T02:49:34.382Z,24.52
2023-03-02T02:52:02.988Z,22.95
2023-03-02T02:54:31.537Z,23.80
2023-03-02T02:57:00.768Z,22.42
2023-03-02T02:59:32.854Z,21.98
2023-03-02T03:02:01.182Z,20.33
2023-03-02T03:04:33.017Z,23.33
2023-03-02T03:07:06.509Z,26.55
2023-03-02T03:09:33.857Z,19.73
2023-03-02T03:12:20.744Z,23.60
2023-03-02T03:14:48.479Z,22.00
2023-03-02T03:17:15.463Z,26.13
2023-03-02T03:20:06.253Z,19.42
2023-03-02T03:22:38.224Z,23.13
2023-03-02T03:25:06.928Z,21.58
2023-03-02T03:27:34.048Z,24.33
2023-03-02T03:30:03.005Z,21.25
2023-03-02T03:32:34.457Z,23.40
2023-03-02T03:35:03.635Z,24.27
2023-03-02T03:37:32.874Z,21.55
2023-03-02T03:40:00.344Z,23.73
2023-03-02T03:42:28.572Z,23.10
2023-03-02T03:44:57.962Z,23.77
2023-03-02T03:47:25.040Z,22.65
2023-03-02T03:49:52.476Z,25.83
2023-03-02T03:52:30.762Z,25.92
2023-03-02T03:55:06.523Z,27.25
2023-03-02T03:57:33.639Z,27.25
2023-03-02T04:00:00.990Z,21.20
2023-03-02T04:02:28.276Z,21.38
2023-03-02T04:04:55.233Z,20.95
2023-03-02T04:07:22.516Z,21.55
2023-03-02T04:09:49.568Z,17.60
2023-03-02T04:12:16.723Z,21.88
2023-03-02T04:14:48.889Z,17.48
2023-03-02T04:17:16.381Z,17.23
2023-03-02T04:19:46.250Z,20.40
2023-03-02T04:22:15.281Z,17.60
2023-03-02T04:24:43.072Z,17.88
2023-03-02T04:27:10.584Z,21.48
2023-03-02T04:29:37.924Z,17.77
2023-03-02T04:32:09.198Z,19.67
2023-03-02T04:34:38.681Z,15.25
2023-03-02T04:37:05.682Z,19.70
2023-03-02T04:39:33.345Z,18.48
2023-03-02T04:42:00.199Z,17.33
2023-03-02T04:44:27.078Z,16.02
2023-03-02T04:46:54.120Z,17.95
2023-03-02T04:49:21.144Z,20.02
2023-03-02T04:51:50.320Z,24.17
2023-03-02T04:54:22.055Z,18.58
2023-03-02T04:56:49.143Z,17.90
2023-03-02T04:59:16.793Z,18.27
2023-03-02T05:01:44.740Z,18.08
2023-03-02T05:04:12.607Z,19.17
2023-03-02T05:06:39.781Z,18.00
2023-03-02T05:09:07.388Z,17.55
2023-03-02T05:11:35.181Z,19.85
2023-03-02T05:14:05.411Z,15.68
2023-03-02T05:16:35.000Z,22.27
2023-03-02T05:19:04.750Z,20.25
2023-03-02T05:21:31.675Z,17.92
2023-03-02T05:23:59.020Z,18.25
2023-03-02T05:26:25.895Z,19.42
2023-03-02T05:28:54.082Z,18.83
2023-03-02T05:31:31.787Z,19.70
2023-03-02T05:33:58.712Z,20.20
2023-03-02T05:36:25.732Z,21.63
2023-03-02T05:38:52.672Z,22.42
2023-03-02T05:41:19.540Z,26.05
2023-03-02T05:43:46.868Z,21.95
2023-03-02T05:46:14.024Z,26.02
2023-03-02T05:48:42.265Z,26.80
2023-03-02T05:51:09.484Z,23.38
2023-03-02T05:53:51.632Z,26.17
2023-03-02T05:56:21.115Z,24.52
2023-03-02T05:58:48.001Z,24.75
2023-03-02T06:01:15.544Z,25.70
2023-03-02T06:03:43.461Z,28.10
2023-03-02T06:06:14.158Z,25.17
2023-03-02T06:08:42.622Z,23.52
2023-03-02T06:11:10.229Z,29.33
2023-03-02T06:13:37.538Z,22.85
2023-03-02T06:16:05.056Z,19.50
2023-03-02T06:18:32.286Z,19.27
2023-03-02T06:20:59.799Z,16.77
2023-03-02T06:23:26.726Z,17.08
2023-03-02T06:25:53.696Z,19.83
2023-03-02T06:28:20.705Z,18.30
2023-03-02T06:30:49.186Z,21.52
2023-03-02T06:33:18.177Z,19.42
2023-03-02T06:35:45.402Z,16.98
2023-03-02T06:38:12.524Z,16.30
2023-03-02T06:40:40.823Z,20.35
2023-03-02T06:43:07.710Z,19.27
2023-03-02T06:45:34.766Z,16.63
2023-03-02T06:48:02.055Z,20.70
2023-03-02T06:50:29.056Z,14.55
2023-03-02T06:52:56.177Z,20.80
2023-03-02T06:55:23.517Z,20.30
2023-03-02T06:57:50.969Z,14.23
2023-03-02T07:00:25.847Z,13.18
2023-03-02T07:02:53.108Z,15.73
2023-03-02T07:05:23.880Z,15.07
2023-03-02T07:07:51.170Z,13.63
2023-03-02T07:10:18.233Z,19.98
2023-03-02T07:12:45.300Z,16.60
2023-03-02T07:15:14.341Z,15.88
2023-03-02T07:17:43.358Z,18.65
2023-03-02T07:20:12.814Z,15.15
2023-03-02T07:22:40.851Z,15.15
2023-03-02T07:25:08.798Z,16.38
2023-03-02T07:27:39.033Z,14.10
2023-03-02T07:30:07.142Z,15.80
2023-03-02T07:32:34.599Z,14.95
2023-03-02T07:35:01.904Z,14.82
2023-03-02T07:37:28.980Z,16.90
2023-03-02T07:39:55.815Z,20.42
2023-03-02T07:42:23.040Z,17.77
2023-03-02T07:44:54.794Z,17.70
2023-03-02T07:47:22.336Z,16.67
2023-03-02T07:49:49.350Z,19.77
2023-03-02T07:52:16.363Z,18.50
2023-03-02T07:54:43.356Z,16.05
2023-03-02T07:57:10.240Z,15.82
2023-03-02T07:59:37.393Z,17.27
2023-03-02T08:02:04.368Z,15.90
2023-03-02T08:04:31.856Z,18.70
2023-03-02T08:06:58.863Z,16.45
2023-03-02T08:09:25.732Z,14.73
2023-03-02T08:11:52.633Z,15.82
2023-03-02T08:14:19.516Z,15.40
2023-03-02T08:16:46.533Z,17.63
2023-03-02T08:19:13.401Z,15.13
2023-03-02T08:21:40.586Z,16.23
2023-03-02T08:24:09.446Z,17.65
2023-03-02T08:26:36.364Z,18.70
2023-03-02T08:29:03.533Z,19.95
2023-03-02T08:31:30.569Z,18.58
2023-03-02T08:33:59.498Z,17.83
2023-03-02T08:36:26.590Z,17.42
2023-03-02T08:38:55.085Z,17.98
2023-03-02T08:41:23.671Z,19.02
2023-03-02T08:43:54.261Z,16.83
2023-03-02T08:46:21.634Z,17.60
2023-03-02T08:48:51.317Z,16.15
2023-03-02T08:51:21.936Z,14.18
2023-03-02T08:56:26.942Z,17.77
2023-03-02T08:58:55.756Z,17.40
2023-03-02T09:01:25.893Z,21.10
2023-03-02T09:03:53.129Z,18.80
2023-03-02T09:06:20.655Z,13.82
2023-03-02T09:08:48.645Z,17.00
2023-03-02T09:11:15.910Z,15.75
2023-03-02T09:13:43.029Z,18.17
2023-03-02T09:16:10.029Z,18.67
2023-03-02T09:18:37.196Z,14.57
2023-03-02T09:21:04.419Z,16.63
2023-03-02T09:23:33.051Z,16.70
2023-03-02T09:26:00.076Z,17.10
2023-03-02T09:28:27.465Z,20.17
2023-03-02T09:30:58.653Z,17.92
2023-03-02T09:33:26.478Z,18.02
2023-03-02T09:35:53.698Z,19.38
2023-03-02T09:38:20.990Z,18.00
2023-03-02T09:40:59.908Z,17.05
2023-03-02T09:43:55.698Z,18.15
2023-03-02T09:46:44.746Z,14.15
2023-03-02T09:49:26.743Z,18.80
2023-03-02T09:52:34.133Z,15.40
2023-03-02T09:55:25.249Z,16.67
2023-03-02T09:57:56.798Z,15.13
2023-03-02T10:00:35.371Z,18.40
2023-03-02T10:03:27.313Z,18.40
2023-03-02T10:05:55.514Z,18.25
2023-03-02T10:08:28.283Z,11.77
2023-03-02T10:11:15.161Z,20.05
2023-03-02T10:14:05.356Z,20.35
2023-03-02T10:16:32.844Z,17.23
2023-03-02T10:19:16.345Z,15.90
2023-03-02T10:21:49.023Z,17.00
2023-03-02T10:24:29.531Z,18.08
2023-03-02T10:29:35.410Z,22.23
2023-03-02T10:32:22.550Z,20.17
2023-03-02T10:34:51.594Z,17.73
2023-03-02T10:37:23.037Z,21.15
2023-03-02T10:39:50.310Z,18.02
2023-03-02T10:42:30.975Z,17.08
2023-03-02T10:45:08.221Z,14.90
2023-03-02T10:47:35.159Z,19.85
2023-03-02T10:50:02.040Z,17.23
2023-03-02T10:52:29.407Z,22.38
2023-03-02T10:55:06.905Z,19.65
2023-03-02T10:57:39.302Z,15.77
2023-03-02T11:00:18.532Z,20.92
2023-03-02T11:03:06.676Z,17.60
2023-03-02T11:05:38.750Z,18.23
2023-03-02T11:08:06.883Z,18.05
2023-03-02T11:10:36.813Z,19.20
2023-03-02T11:13:23.861Z,20.20
2023-03-02T11:15:58.199Z,18.08
2023-03-02T11:18:27.946Z,22.05
2023-03-02T11:21:04.816Z,19.75
2023-03-02T11:23:59.607Z,19.30
2023-03-02T11:26:41.640Z,15.63
2023-03-02T11:29:15.111Z,20.35
2023-03-02T11:31:49.280Z,19.40
2023-03-02T11:34:40.440Z,22.98
2023-03-02T11:37:13.530Z,16.27
2023-03-02T11:39:55.578Z,24.77
2023-03-02T11:42:31.064Z,13.85
2023-03-02T11:45:02.940Z,21.70
2023-03-02T11:47:32.376Z,17.95
2023-03-02T11:50:05.964Z,19.10
2023-03-02T11:52:38.162Z,18.73
2023-03-02T11:55:23.742Z,16.08
2023-03-02T11:57:56.800Z,14.07
2023-03-02T12:00:41.568Z,18.35
2023-03-02T12:03:17.698Z,22.73
2023-03-02T12:06:07.265Z,21.90
2023-03-02T12:08:46.636Z,19.63
2023-03-02T12:11:19.734Z,23.38
2023-03-02T12:14:26.475Z,20.27
2023-03-02T12:17:06.226Z,18.60
2023-03-02T12:19:42.728Z,16.48
2023-03-02T12:22:12.517Z,17.50
2023-03-02T12:24:45.098Z,18.95
2023-03-02T12:27:23.136Z,20.90
2023-03-02T12:30:11.913Z,15.65
2023-03-02T12:32:39.160Z,17.15
2023-03-02T12:35:13.830Z,19.10
2023-03-02T12:37:48.658Z,15.07
2023-03-02T12:40:42.075Z,15.90
2023-03-02T12:43:20.991Z,15.85
2023-03-02T12:46:21.359Z,16.02
2023-03-02T12:49:27.290Z,16.75
2023-03-02T12:52:03.441Z,13.32
2023-03-02T12:54:34.671Z,14.13
2023-03-02T12:57:06.399Z,13.90
2023-03-02T12:59:33.680Z,11.52
2023-03-02T13:02:22.419Z,14.40
2023-03-02T13:04:57.933Z,14.65
2023-03-02T13:07:37.028Z,12.32
2023-03-02T13:10:26.324Z,12.40
2023-03-02T13:12:53.289Z,11.75
2023-03-02T13:15:20.767Z,16.42
2023-03-02T13:17:58.828Z,12.45
2023-03-02T13:20:29.306Z,12.60
2023-03-02T13:25:29.802Z,12.75
2023-03-02T13:28:07.482Z,10.20
2023-03-02T13:30:37.516Z,11.38
2023-03-02T13:33:22.329Z,11.35
2023-03-02T13:35:49.397Z,12.55
2023-03-02T13:38:18.985Z,13.48
2023-03-02T13:40:51.792Z,14.17
2023-03-02T13:43:34.878Z,11.73
2023-03-02T13:46:22.311Z,14.57
2023-03-02T13:49:10.309Z,11.68
2023-03-02T13:51:48.000Z,13.05
2023-03-02T13:54:25.695Z,11.88
2023-03-02T13:56:53.862Z,12.43
2023-03-02T13:59:22.474Z,14.90
2023-03-02T14:01:49.465Z,12.30
2023-03-02T14:04:19.293Z,12.05
2023-03-02T14:06:46.738Z,13.10
2023-03-02T14:09:14.534Z,10.80
2023-03-02T14:11:47.514Z,10.25
2023-03-02T14:14:18.324Z,12.88
2023-03-02T14:16:45.272Z,16.05
2023-03-02T14:19:13.823Z,11.07
2023-03-02T14:21:42.139Z,14.82
2023-03-02T14:24:09.293Z,8.60
2023-03-02T14:26:44.138Z,12.80
2023-03-02T14:29:31.702Z,9.98
2023-03-02T14:32:03.687Z,8.30
2023-03-02T14:34:30.623Z,10.25
2023-03-02T14:37:02.395Z,14.43
2023-03-02T14:39:46.855Z,11.43
2023-03-02T14:42:16.355Z,14.85
2023-03-02T14:44:44.792Z,9.70
2023-03-02T14:47:12.234Z,9.88
2023-03-02T14:49:39.644Z,10.40
2023-03-02T14:52:19.517Z,9.27
2023-03-02T14:55:25.896Z,9.90
2023-03-02T14:57:57.720Z,9.48
2023-03-02T15:00:25.575Z,12.25
2023-03-02T15:02:52.990Z,11.27
2023-03-02T15:05:20.166Z,13.02
2023-03-02T15:07:48.099Z,9.35
2023-03-02T15:10:20.770Z,9.05
2023-03-02T15:12:47.856Z,11.88
2023-03-02T15:15:15.124Z,13.63
2023-03-02T15:17:42.696Z,10.80
2023-03-02T15:20:15.121Z,13.80
2023-03-02T15:22:42.025Z,9.35
2023-03-02T15:25:09.481Z,9.40
2023-03-02T15:27:36.368Z,11.05
2023-03-02T15:30:03.926Z,14.68
2023-03-02T15:32:31.019Z,10.48
2023-03-02T15:34:57.999Z,9.98
2023-03-02T15:37:24.929Z,8.50
2023-03-02T15:39:56.160Z,10.30
2023-03-02T15:42:24.107Z,11.23
2023-03-02T15:44:51.298Z,10.18
2023-03-02T15:47:21.400Z,10.50
2023-03-02T15:49:48.425Z,10.55
2023-03-02T15:52:15.621Z,10.70
2023-03-02T15:54:42.606Z,9.00
2023-03-02T15:57:10.229Z,9.77
2023-03-02T15:59:37.333Z,11.30
2023-03-02T16:02:05.054Z,9.63
2023-03-02T16:04:33.635Z,9.52
2023-03-02T16:07:01.132Z,12.95
2023-03-02T16:09:31.471Z,9.90
2023-03-02T16:11:58.993Z,10.82
2023-03-02T16:14:26.082Z,12.85
2023-03-02T16:16:53.399Z,12.10
2023-03-02T16:19:20.473Z,10.60
2023-03-02T16:21:48.473Z,8.75
2023-03-02T16:24:17.091Z,9.77
2023-03-02T16:26:44.935Z,30.58
2023-03-02T16:29:13.124Z,28.75
2023-03-02T16:31:41.160Z,28.92
2023-03-02T16:34:09.082Z,31.83
2023-03-02T16:36:37.968Z,34.38
2023-03-02T16:39:05.910Z,32.05
2023-03-02T16:41:33.356Z,33.95
2023-03-02T16:44:00.612Z,29.63
2023-03-02T16:46:32.308Z,29.45
2023-03-02T16:48:59.738Z,32.38
2023-03-02T16:51:26.646Z,31.83
2023-03-02T16:53:53.756Z,31.98
2023-03-02T16:56:21.196Z,37.35
2023-03-02T16:58:48.459Z,35.47
2023-03-02T17:01:19.589Z,33.38
2023-03-02T17:03:47.861Z,31.95
2023-03-02T17:06:16.759Z,34.13
2023-03-02T17:08:43.739Z,33.05
2023-03-02T17:11:10.819Z,37.35
2023-03-02T17:13:38.193Z,36.95
2023-03-02T17:16:05.536Z,39.45
2023-03-02T17:18:33.348Z,35.97
2023-03-02T17:21:00.673Z,37.38
2023-03-02T17:23:28.188Z,49.15
2023-03-02T17:25:56.159Z,53.45
2023-03-02T17:28:23.781Z,51.40
2023-03-02T17:30:50.822Z,46.17
2023-03-02T17:33:18.351Z,46.13
2023-03-02T17:35:46.315Z,38.88
2023-03-02T17:38:14.533Z,42.58
2023-03-02T17:40:42.099Z,39.90
2023-03-02T17:43:09.274Z,37.50
2023-03-02T17:45:36.260Z,42.03
2023-03-02T17:48:03.613Z,40.75
2023-03-02T17:50:33.823Z,38.00
2023-03-02T17:53:02.158Z,41.35
2023-03-02T17:55:29.316Z,42.85
2023-03-02T17:57:56.282Z,42.40
2023-03-02T18:00:24.088Z,41.97
2023-03-02T18:02:52.115Z,41.72
2023-03-02T18:05:19.482Z,38.70
2023-03-02T18:07:47.169Z,41.03
2023-03-02T18:10:19.172Z,39.47
2023-03-02T18:12:46.141Z,40.25
2023-03-02T18:15:13.328Z,39.25
2023-03-02T18:17:40.441Z,38.40
2023-03-02T18:20:08.146Z,40.78
2023-03-02T18:22:35.131Z,41.47
2023-03-02T18:25:10.997Z,40.65
2023-03-02T18:27:37.948Z,45.17
2023-03-02T18:30:05.276Z,41.45
2023-03-02T18:32:32.248Z,42.60
2023-03-02T18:34:59.207Z,37.67
2023-03-02T18:37:26.178Z,36.60
2023-03-02T18:39:53.157Z,44.75
2023-03-02T18:42:20.337Z,39.50
2023-03-02T18:44:47.418Z,39.42
2023-03-02T18:47:16.874Z,41.60
2023-03-02T18:49:44.820Z,38.00
2023-03-02T18:52:16.660Z,39.00
2023-03-02T18:54:47.379Z,38.20
2023-03-02T18:57:14.552Z,37.85
2023-03-02T18:59:41.748Z,40.35
2023-03-02T19:02:13.976Z,38.88
2023-03-02T19:04:41.532Z,38.55
2023-03-02T19:07:08.982Z,39.42
2023-03-02T19:09:36.250Z,40.03
2023-03-02T19:12:04.591Z,41.97
2023-03-02T19:14:31.621Z,42.08
2023-03-02T19:16:58.843Z,40.55
2023-03-02T19:19:25.776Z,45.55
2023-03-02T19:21:52.762Z,47.60
2023-03-02T19:24:19.746Z,43.83
2023-03-02T19:26:46.671Z,43.15
2023-03-02T19:29:13.577Z,41.55
2023-03-02T19:31:41.657Z,41.00
2023-03-02T19:34:08.648Z,41.65
2023-03-02T19:36:35.961Z,41.60
2023-03-02T19:39:02.996Z,38.80
2023-03-02T19:41:30.278Z,42.47
2023-03-02T19:43:57.708Z,38.20
2023-03-02T19:46:24.871Z,42.85
2023-03-02T19:48:51.787Z,43.45
2023-03-02T19:51:18.802Z,42.65
2023-03-02T19:53:47.131Z,43.72
2023-03-02T19:56:19.383Z,46.00
2023-03-02T19:58:55.094Z,42.85
2023-03-02T20:01:25.004Z,45.53
2023-03-02T20:03:53.098Z,42.67
2023-03-02T20:06:27.705Z,39.60
2023-03-02T20:08:54.671Z,41.15
2023-03-02T20:11:22.633Z,39.92
2023-03-02T20:13:50.695Z,35.25
2023-03-02T20:16:19.565Z,44.53
2023-03-02T20:18:46.610Z,46.22
2023-03-02T20:21:13.585Z,38.55
2023-03-02T20:23:40.655Z,46.60
2023-03-02T20:26:07.726Z,45.33
2023-03-02T20:28:35.195Z,41.65
2023-03-02T20:31:08.958Z,48.97
2023-03-02T20:33:43.123Z,42.40
2023-03-02T20:36:11.636Z,41.70
2023-03-02T20:38:47.065Z,46.67
2023-03-02T20:41:15.333Z,37.10
2023-03-02T20:43:43.317Z,42.35
2023-03-02T20:46:20.979Z,43.35
2023-03-02T20:48:48.436Z,39.75
2023-03-02T20:51:15.744Z,40.45
2023-03-02T20:53:47.318Z,44.20
2023-03-02T20:56:18.221Z,46.08
2023-03-02T20:58:46.873Z,46.35
2023-03-02T21:01:15.728Z,43.33
2023-03-02T21:03:42.929Z,42.92
2023-03-02T21:06:11.019Z,44.28
2023-03-02T21:08:39.112Z,40.45
2023-03-02T21:11:18.410Z,39.22
2023-03-02T21:13:47.464Z,35.95
2023-03-02T21:16:21.907Z,44.95
2023-03-02T21:18:48.839Z,44.67
2023-03-02T21:21:16.679Z,47.75
2023-03-02T21:23:43.574Z,44.60
2023-03-02T21:26:12.264Z,40.92
2023-03-02T21:28:44.062Z,41.80
2023-03-02T21:31:11.945Z,43.90
2023-03-02T21:33:39.392Z,45.88
2023-03-02T21:36:07.360Z,43.42
2023-03-02T21:38:34.237Z,44.03
2023-03-02T21:41:01.158Z,41.92
2023-03-02T21:43:28.173Z,43.65
2023-03-02T21:45:55.150Z,42.88
2023-03-02T21:48:23.084Z,44.00
2023-03-02T21:50:50.347Z,43.80
2023-03-02T21:53:17.563Z,45.80
2023-03-02T21:55:45.937Z,45.00
2023-03-02T21:58:12.905Z,47.53
2023-03-02T22:00:40.648Z,43.15
2023-03-02T22:03:07.702Z,42.45
2023-03-02T22:05:35.808Z,43.47
2023-03-02T22:08:02.807Z,46.28
2023-03-02T22:10:45.888Z,45.00
2023-03-02T22:13:25.854Z,41.35
2023-03-02T22:16:15.456Z,42.75
2023-03-02T22:18:43.544Z,46.55
2023-03-02T22:21:36.248Z,51.95
2023-03-02T22:24:13.927Z,39.15
2023-03-02T22:27:00.259Z,39.80
2023-03-02T22:29:28.866Z,41.28
2023-03-02T22:32:01.713Z,46.53
2023-03-02T22:34:31.077Z,41.05
2023-03-02T22:37:14.740Z,52.08
2023-03-02T22:39:42.473Z,44.90
2023-03-02T22:42:12.340Z,45.63
2023-03-02T22:44:39.690Z,45.42
2023-03-02T22:47:15.451Z,55.00
2023-03-02T22:49:42.542Z,40.58
2023-03-02T22:52:24.410Z,43.78
2023-03-02T22:54:51.790Z,42.22
2023-03-02T22:57:30.072Z,48.88
2023-03-02T23:00:14.136Z,36.33
2023-03-02T23:02:43.889Z,41.95
2023-03-02T23:05:28.343Z,44.03
2023-03-02T23:08:17.594Z,44.97
2023-03-02T23:10:46.041Z,44.58
2023-03-02T23:13:16.492Z,44.95
2023-03-02T23:18:23.301Z,42.90
2023-03-02T23:20:51.119Z,44.92
2023-03-02T23:23:18.886Z,50.58
2023-03-02T23:25:46.611Z,38.22
2023-03-02T23:28:13.699Z,36.45
2023-03-02T23:30:40.937Z,45.67
2023-03-02T23:33:08.282Z,38.58
2023-03-02T23:35:35.377Z,47.88
2023-03-02T23:38:02.362Z,38.67
2023-03-02T23:40:29.499Z,43.00
2023-03-02T23:42:56.480Z,41.47
2023-03-02T23:45:23.394Z,41.35
2023-03-02T23:47:50.341Z,41.83
2023-03-02T23:50:17.437Z,46.90
2023-03-02T23:52:44.401Z,41.28
2023-03-02T23:55:11.801Z,49.60
2023-03-02T23:57:38.925Z,48.40
